Klickitat, Washington
Current Conditions -  °F | °C
As of 11:53 AM on Sunday 25 Jan 2015 (Local Time) from KDLS Reporting Station
Overcast Overcast  
Wind Chill: 45°   Ceiling: 400
Heat Index: 47°   Visibility: 8mi
Dew Point: 45°   Wind: 5mph
Humidity: 93%   Direction: 200°SSW
Pressure: 30.22"   Gusts: NA
Location:  45.82°N, 121.15°W
Report Text: KDLS 251953Z AUTO 20004KT 8SM OVC004 08/07 A3022 RMK AO2 SLP236 T00830072
Loading
Personal Weather Stations






























Interactive Weather Map New forecast layout! Learn more

10-Day Weather Forecast

Advertisements
Track Severe Weather on mobile